createdAt,value
2019-05-30T00:01:12.343Z,14.87
2019-05-30T00:03:38.396Z,15.00
2019-05-30T00:06:04.651Z,14.83
2019-05-30T00:08:30.840Z,16.57
2019-05-30T00:10:56.912Z,16.23
2019-05-30T00:13:22.973Z,15.97
2019-05-30T00:15:49.033Z,16.20
2019-05-30T00:18:15.102Z,15.20
2019-05-30T00:20:41.263Z,16.90
2019-05-30T00:23:07.330Z,16.07
2019-05-30T00:25:33.408Z,16.80
2019-05-30T00:27:59.463Z,17.10
2019-05-30T00:30:25.524Z,16.60
2019-05-30T00:32:51.601Z,16.43
2019-05-30T00:35:17.646Z,16.80
2019-05-30T00:37:43.721Z,16.97
2019-05-30T00:40:10.097Z,19.17
2019-05-30T00:42:36.176Z,16.30
2019-05-30T00:45:18.002Z,17.03
2019-05-30T00:47:31.811Z,19.17
2019-05-30T00:49:58.169Z,17.63
2019-05-30T00:52:24.358Z,19.50
2019-05-30T00:54:50.419Z,16.37
2019-05-30T00:57:16.476Z,20.50
2019-05-30T00:59:42.605Z,17.10
2019-05-30T01:02:08.799Z,17.30
2019-05-30T01:04:34.856Z,16.47
2019-05-30T01:07:01.009Z,16.43
2019-05-30T01:09:27.080Z,16.37
2019-05-30T01:11:53.135Z,15.47
2019-05-30T01:14:19.200Z,15.60
2019-05-30T01:16:45.260Z,15.90
2019-05-30T01:19:11.369Z,16.90
2019-05-30T01:21:37.595Z,15.63
2019-05-30T01:24:03.869Z,16.97
2019-05-30T01:26:29.925Z,15.77
2019-05-30T01:28:57.277Z,17.90
2019-05-30T01:31:23.456Z,17.93
2019-05-30T01:33:49.503Z,16.20
2019-05-30T01:36:15.560Z,19.37
2019-05-30T01:38:41.624Z,16.07
2019-05-30T01:41:08.078Z,16.10
2019-05-30T01:43:34.340Z,15.63
2019-05-30T01:46:00.400Z,16.67
2019-05-30T01:48:26.568Z,18.37
2019-05-30T01:50:52.624Z,16.23
2019-05-30T01:53:18.724Z,17.33
2019-05-30T01:55:44.851Z,14.77
2019-05-30T01:58:11.030Z,19.73
2019-05-30T02:00:38.697Z,16.77
2019-05-30T02:03:06.953Z,18.00
2019-05-30T02:05:33.333Z,17.07
2019-05-30T02:07:59.379Z,19.30
2019-05-30T02:10:25.455Z,18.02
2019-05-30T02:12:51.533Z,18.85
2019-05-30T02:15:17.679Z,18.17
2019-05-30T02:17:43.764Z,19.63
2019-05-30T02:20:10.360Z,19.67
2019-05-30T02:22:36.437Z,19.82
2019-05-30T02:25:06.088Z,17.52
2019-05-30T02:27:32.268Z,21.17
2019-05-30T02:29:58.347Z,19.20
2019-05-30T02:32:24.413Z,19.73
2019-05-30T02:34:50.480Z,19.40
2019-05-30T02:37:16.548Z,20.55
2019-05-30T02:39:42.617Z,19.25
2019-05-30T02:42:09.606Z,20.68
2019-05-30T02:44:36.354Z,19.35
2019-05-30T02:47:03.596Z,19.80
2019-05-30T02:49:30.600Z,18.67
2019-05-30T02:51:56.709Z,22.02
2019-05-30T02:54:22.928Z,20.68
2019-05-30T02:56:49.000Z,20.00
2019-05-30T02:59:15.170Z,20.97
2019-05-30T03:01:58.990Z,21.42
2019-05-30T03:04:10.992Z,19.00
2019-05-30T03:06:37.578Z,20.45
2019-05-30T03:09:06.782Z,18.82
2019-05-30T03:11:34.117Z,20.57
2019-05-30T03:14:02.140Z,18.92
2019-05-30T03:16:28.564Z,18.37
2019-05-30T03:18:54.941Z,19.12
2019-05-30T03:21:20.994Z,18.75
2019-05-30T03:23:47.074Z,21.23
2019-05-30T03:26:15.718Z,17.80
2019-05-30T03:28:41.193Z,17.48
2019-05-30T03:31:13.870Z,21.10
2019-05-30T03:33:41.571Z,17.70
2019-05-30T03:36:09.022Z,18.75
2019-05-30T03:38:32.284Z,17.80
2019-05-30T03:40:58.452Z,16.45
2019-05-30T03:43:24.520Z,18.07
2019-05-30T03:45:50.594Z,14.75
2019-05-30T03:48:19.739Z,19.10
2019-05-30T03:50:49.622Z,17.87
2019-05-30T03:53:16.282Z,16.97
2019-05-30T03:55:46.353Z,17.17
2019-05-30T03:58:31.396Z,17.07
2019-05-30T04:01:01.273Z,15.78
2019-05-30T04:03:43.434Z,16.85
2019-05-30T04:06:28.549Z,16.35
2019-05-30T04:08:58.431Z,15.63
2019-05-30T04:11:28.296Z,18.12
2019-05-30T04:14:00.857Z,17.42
2019-05-30T04:16:26.935Z,18.27
2019-05-30T04:18:52.997Z,16.85
2019-05-30T04:21:21.525Z,15.70
2019-05-30T04:23:47.054Z,16.25
2019-05-30T04:26:13.713Z,16.17
2019-05-30T04:28:40.067Z,16.50
2019-05-30T04:31:07.994Z,16.45
2019-05-30T04:33:34.206Z,14.85
2019-05-30T04:36:00.280Z,15.55
2019-05-30T04:38:26.336Z,15.90
2019-05-30T04:40:52.395Z,16.95
2019-05-30T04:43:20.024Z,15.45
2019-05-30T04:45:46.530Z,15.60
2019-05-30T04:48:13.965Z,18.20
2019-05-30T04:50:40.273Z,16.27
2019-05-30T04:53:06.331Z,15.90
2019-05-30T04:55:32.404Z,17.75
2019-05-30T04:57:58.465Z,15.88
2019-05-30T05:00:24.616Z,15.60
2019-05-30T05:02:50.697Z,17.27
2019-05-30T05:05:22.633Z,15.93
2019-05-30T05:07:44.817Z,17.95
2019-05-30T05:10:12.068Z,16.82
2019-05-30T05:12:38.263Z,18.07
2019-05-30T05:15:04.832Z,17.45
2019-05-30T05:17:30.890Z,15.10
2019-05-30T05:19:57.380Z,16.52
2019-05-30T05:22:23.453Z,14.83
2019-05-30T05:24:49.591Z,14.60
2019-05-30T05:27:15.671Z,15.48
2019-05-30T05:29:41.729Z,16.10
2019-05-30T05:32:07.787Z,14.87
2019-05-30T05:34:33.860Z,13.60
2019-05-30T05:37:00.020Z,12.98
2019-05-30T05:39:26.102Z,12.90
2019-05-30T05:41:52.163Z,12.00
2019-05-30T05:44:18.348Z,13.90
2019-05-30T05:46:44.502Z,12.30
2019-05-30T05:49:10.568Z,12.40
2019-05-30T05:51:36.627Z,11.45
2019-05-30T05:54:02.710Z,12.00
2019-05-30T05:56:29.165Z,12.57
2019-05-30T05:58:55.328Z,10.87
2019-05-30T06:01:21.554Z,10.70
2019-05-30T06:03:47.759Z,12.20
2019-05-30T06:06:13.810Z,10.03
2019-05-30T06:08:39.885Z,11.33
2019-05-30T06:11:05.936Z,12.13
2019-05-30T06:13:32.017Z,10.50
2019-05-30T06:15:58.090Z,13.00
2019-05-30T06:18:24.240Z,9.90
2019-05-30T06:20:50.536Z,12.03
2019-05-30T06:23:17.335Z,10.63
2019-05-30T06:25:43.571Z,11.23
2019-05-30T06:28:09.644Z,11.97
2019-05-30T06:30:35.787Z,11.63
2019-05-30T06:33:01.869Z,12.17
2019-05-30T06:35:29.393Z,10.77
2019-05-30T06:37:55.783Z,11.53
2019-05-30T06:40:21.844Z,10.90
2019-05-30T06:42:47.912Z,10.23
2019-05-30T06:45:14.199Z,11.53
2019-05-30T06:47:40.365Z,10.97
2019-05-30T06:50:07.015Z,9.90
2019-05-30T06:52:33.093Z,8.50
2019-05-30T06:54:59.153Z,9.20
2019-05-30T06:57:25.307Z,8.60
2019-05-30T06:59:51.468Z,7.90
2019-05-30T07:02:17.550Z,8.50
2019-05-30T07:04:51.403Z,7.60
2019-05-30T07:07:11.967Z,7.80
2019-05-30T07:09:38.351Z,7.43
2019-05-30T07:12:04.524Z,7.73
2019-05-30T07:14:31.471Z,7.60
2019-05-30T07:16:57.742Z,8.30
2019-05-30T07:19:23.820Z,7.63
2019-05-30T07:21:49.881Z,8.40
2019-05-30T07:24:16.043Z,8.87
2019-05-30T07:26:42.104Z,7.03
2019-05-30T07:29:08.156Z,7.23
2019-05-30T07:31:34.448Z,6.67
2019-05-30T07:34:00.615Z,9.17
2019-05-30T07:36:26.668Z,6.10
2019-05-30T07:38:52.729Z,5.93
2019-05-30T07:41:18.790Z,6.40
2019-05-30T07:43:44.839Z,6.43
2019-05-30T07:46:11.016Z,5.90
2019-05-30T07:48:37.081Z,8.10
2019-05-30T07:51:03.244Z,6.27
2019-05-30T07:53:29.321Z,5.90
2019-05-30T07:55:55.363Z,5.80
2019-05-30T07:58:21.530Z,6.07
2019-05-30T08:00:47.587Z,4.93
2019-05-30T08:03:13.647Z,4.83
2019-05-30T08:05:39.724Z,5.23
2019-05-30T08:08:05.778Z,5.50
2019-05-30T08:10:32.040Z,5.03
2019-05-30T08:12:58.321Z,5.50
2019-05-30T08:15:24.476Z,5.50
2019-05-30T08:17:51.244Z,5.47
2019-05-30T08:20:17.498Z,4.73
2019-05-30T08:22:43.572Z,4.90
2019-05-30T08:25:10.340Z,5.03
2019-05-30T08:27:36.566Z,4.90
2019-05-30T08:30:08.577Z,5.00
2019-05-30T08:32:34.662Z,5.20
2019-05-30T08:35:00.899Z,4.80
2019-05-30T08:37:26.960Z,5.10
2019-05-30T08:39:53.028Z,4.83
2019-05-30T08:42:19.084Z,4.77
2019-05-30T08:44:45.192Z,5.10
2019-05-30T08:47:11.255Z,5.87
2019-05-30T08:49:38.260Z,5.03
2019-05-30T08:52:04.569Z,5.13
2019-05-30T08:54:30.627Z,4.60
2019-05-30T08:56:56.693Z,4.67
2019-05-30T08:59:22.768Z,3.97
2019-05-30T09:01:52.941Z,4.47
2019-05-30T09:04:16.789Z,4.30
2019-05-30T09:06:44.078Z,3.53
2019-05-30T09:09:10.334Z,4.00
2019-05-30T09:11:37.702Z,4.27
2019-05-30T09:14:04.463Z,4.27
2019-05-30T09:16:30.633Z,3.43
2019-05-30T09:18:56.700Z,3.50
2019-05-30T09:21:22.783Z,3.80
2019-05-30T09:23:48.853Z,3.80
2019-05-30T09:26:14.927Z,4.20
2019-05-30T09:28:42.124Z,3.23
2019-05-30T09:31:08.356Z,3.33
2019-05-30T09:33:34.424Z,4.50
2019-05-30T09:36:12.593Z,3.83
2019-05-30T09:38:28.460Z,3.50
2019-05-30T09:40:54.521Z,3.60
2019-05-30T09:43:20.604Z,3.40
2019-05-30T09:45:46.652Z,3.33
2019-05-30T09:48:12.708Z,3.30
2019-05-30T09:50:38.794Z,3.30
2019-05-30T09:53:04.940Z,3.60
2019-05-30T09:55:31.193Z,3.60
2019-05-30T09:57:57.303Z,3.30
2019-05-30T10:00:23.468Z,3.37
2019-05-30T10:02:50.533Z,3.03
2019-05-30T10:05:17.612Z,3.40
2019-05-30T10:07:45.553Z,3.00
2019-05-30T10:10:13.995Z,3.43
2019-05-30T10:12:40.088Z,3.30
2019-05-30T10:15:08.452Z,3.13
2019-05-30T10:17:34.511Z,3.27
2019-05-30T10:20:00.581Z,2.83
2019-05-30T10:22:26.643Z,2.67
2019-05-30T10:24:53.361Z,3.70
2019-05-30T10:27:19.591Z,2.63
2019-05-30T10:29:46.331Z,2.87
2019-05-30T10:32:13.617Z,2.83
2019-05-30T10:34:39.708Z,2.83
2019-05-30T10:37:05.884Z,3.30
2019-05-30T10:39:31.980Z,3.10
2019-05-30T10:41:58.026Z,2.80
2019-05-30T10:44:24.092Z,2.87
2019-05-30T10:46:50.971Z,3.40
2019-05-30T10:49:31.510Z,3.00
2019-05-30T10:51:46.747Z,3.17
2019-05-30T10:54:13.532Z,3.07
2019-05-30T10:56:39.596Z,3.30
2019-05-30T10:59:05.641Z,3.10
2019-05-30T11:01:31.703Z,2.73
2019-05-30T11:03:57.756Z,3.10
2019-05-30T11:06:27.627Z,3.30
2019-05-30T11:08:54.843Z,2.97
2019-05-30T11:11:21.015Z,2.83
2019-05-30T11:13:47.060Z,2.90
2019-05-30T11:16:13.128Z,3.13
2019-05-30T11:18:39.346Z,2.93
2019-05-30T11:21:05.460Z,2.60
2019-05-30T11:23:31.535Z,2.50
2019-05-30T11:25:58.820Z,2.83
2019-05-30T11:28:25.144Z,2.70
2019-05-30T11:30:51.202Z,2.80
2019-05-30T11:33:17.365Z,2.70
2019-05-30T11:35:43.420Z,2.43
2019-05-30T11:38:09.526Z,2.83
2019-05-30T11:40:35.670Z,2.90
2019-05-30T11:43:01.824Z,2.30
2019-05-30T11:45:28.187Z,3.10
2019-05-30T11:47:55.661Z,2.50
2019-05-30T11:50:22.108Z,2.60
2019-05-30T11:52:49.733Z,2.50
2019-05-30T11:55:16.140Z,2.43
2019-05-30T11:57:42.192Z,2.60
2019-05-30T12:00:09.164Z,2.93
2019-05-30T12:02:35.284Z,2.57
2019-05-30T12:05:01.429Z,2.40
2019-05-30T12:07:36.463Z,2.40
2019-05-30T12:09:55.465Z,2.13
2019-05-30T12:12:21.644Z,2.73
2019-05-30T12:14:47.730Z,1.90
2019-05-30T12:17:13.879Z,2.07
2019-05-30T12:19:39.959Z,2.10
2019-05-30T12:22:06.104Z,2.00
2019-05-30T12:24:32.192Z,2.07
2019-05-30T12:26:58.352Z,2.00
2019-05-30T12:29:24.410Z,2.30
2019-05-30T12:31:50.462Z,1.70
2019-05-30T12:34:16.619Z,1.93
2019-05-30T12:36:42.677Z,2.00
2019-05-30T12:39:08.728Z,1.80
2019-05-30T12:41:34.795Z,1.67
2019-05-30T12:44:01.344Z,1.77
2019-05-30T12:46:27.629Z,1.80
2019-05-30T12:48:53.681Z,2.07
2019-05-30T12:51:19.783Z,2.53
2019-05-30T12:53:45.827Z,2.30
2019-05-30T12:56:11.900Z,1.90
2019-05-30T12:58:38.053Z,1.90
2019-05-30T13:01:04.103Z,2.23
2019-05-30T13:03:30.172Z,1.70
2019-05-30T13:05:57.072Z,1.77
2019-05-30T13:08:23.263Z,1.30
2019-05-30T13:10:49.325Z,1.40
2019-05-30T13:13:15.474Z,1.47
2019-05-30T13:15:41.531Z,1.40
2019-05-30T13:18:07.599Z,1.70
2019-05-30T13:20:33.859Z,1.50
2019-05-30T13:23:00.569Z,1.80
2019-05-30T13:25:26.714Z,1.57
2019-05-30T13:27:52.772Z,1.53
2019-05-30T13:30:19.124Z,1.33
2019-05-30T13:32:45.217Z,1.70
2019-05-30T13:35:12.146Z,1.60
2019-05-30T13:37:38.226Z,1.40
2019-05-30T13:40:19.294Z,1.43
2019-05-30T13:42:33.620Z,1.60
2019-05-30T13:44:59.956Z,1.70
2019-05-30T13:47:26.180Z,1.80
2019-05-30T13:49:52.248Z,1.30
2019-05-30T13:52:18.296Z,1.47
2019-05-30T13:54:44.351Z,1.50
2019-05-30T13:57:10.415Z,1.77
2019-05-30T13:59:36.466Z,1.50
2019-05-30T14:02:03.884Z,1.30
2019-05-30T14:04:30.551Z,1.60
2019-05-30T14:06:56.976Z,1.30
2019-05-30T14:09:23.463Z,1.30
2019-05-30T14:11:49.935Z,1.53
2019-05-30T14:14:19.656Z,1.37
2019-05-30T14:16:44.704Z,1.63
2019-05-30T14:19:12.950Z,1.37
2019-05-30T14:21:39.475Z,1.40
2019-05-30T14:24:05.920Z,1.50
2019-05-30T14:26:32.336Z,1.50
2019-05-30T14:28:58.761Z,1.77
2019-05-30T14:31:25.187Z,1.70
2019-05-30T14:33:51.267Z,1.53
2019-05-30T14:36:17.352Z,1.70
2019-05-30T14:38:57.232Z,1.50
2019-05-30T14:41:11.939Z,1.50
2019-05-30T14:43:39.372Z,1.53
2019-05-30T14:46:06.272Z,1.63
2019-05-30T14:48:32.496Z,1.70
2019-05-30T14:50:58.561Z,1.70
2019-05-30T14:53:24.628Z,1.50
2019-05-30T14:55:50.684Z,1.60
2019-05-30T14:58:17.781Z,1.87
2019-05-30T15:00:44.108Z,1.60
2019-05-30T15:03:13.922Z,1.60
2019-05-30T15:05:38.176Z,1.53
2019-05-30T15:08:04.642Z,1.73
2019-05-30T15:10:30.796Z,1.70
2019-05-30T15:12:56.850Z,1.87
2019-05-30T15:15:22.924Z,2.20
2019-05-30T15:17:49.025Z,1.70
2019-05-30T15:20:15.951Z,1.73
2019-05-30T15:22:42.035Z,1.67
2019-05-30T15:25:08.204Z,1.50
2019-05-30T15:27:34.382Z,1.80
2019-05-30T15:30:00.574Z,1.70
2019-05-30T15:32:27.064Z,1.87
2019-05-30T15:34:53.599Z,1.60
2019-05-30T15:37:20.165Z,1.60
2019-05-30T15:39:46.667Z,1.77
2019-05-30T15:42:13.600Z,1.70
2019-05-30T15:44:40.223Z,1.70
2019-05-30T15:47:07.814Z,1.47
2019-05-30T15:49:34.389Z,1.60
2019-05-30T15:52:00.901Z,2.00
2019-05-30T15:54:27.407Z,1.87
2019-05-30T15:56:53.844Z,1.47
2019-05-30T15:59:20.266Z,1.50
2019-05-30T16:01:46.691Z,1.90
2019-05-30T16:04:14.107Z,1.60
2019-05-30T16:06:40.788Z,1.50
2019-05-30T16:09:07.275Z,1.60
2019-05-30T16:11:34.152Z,1.37
2019-05-30T16:14:00.626Z,1.70
2019-05-30T16:16:39.541Z,1.80
2019-05-30T16:18:55.484Z,2.00
2019-05-30T16:21:22.457Z,1.80
2019-05-30T16:23:49.072Z,1.53
2019-05-30T16:26:15.572Z,2.20
2019-05-30T16:28:42.124Z,2.53
2019-05-30T16:31:08.613Z,3.07
2019-05-30T16:33:35.105Z,3.37
2019-05-30T16:36:01.636Z,2.00
2019-05-30T16:38:28.105Z,2.00
2019-05-30T16:40:54.604Z,1.87
2019-05-30T16:43:21.074Z,1.70
2019-05-30T16:45:48.656Z,1.57
2019-05-30T16:48:16.255Z,2.10
2019-05-30T16:50:42.853Z,1.60
2019-05-30T16:53:09.311Z,1.83
2019-05-30T16:55:35.780Z,1.80
2019-05-30T16:58:02.385Z,1.70
2019-05-30T17:00:28.977Z,1.53
2019-05-30T17:02:55.444Z,1.40
2019-05-30T17:05:21.932Z,1.87
2019-05-30T17:07:48.798Z,1.80
2019-05-30T17:10:23.354Z,1.83
2019-05-30T17:12:44.212Z,2.13
2019-05-30T17:15:10.808Z,1.60
2019-05-30T17:17:37.279Z,2.53
2019-05-30T17:20:05.047Z,1.80
2019-05-30T17:22:31.538Z,1.60
2019-05-30T17:24:58.068Z,1.90
2019-05-30T17:27:24.619Z,1.80
2019-05-30T17:29:51.111Z,1.37
2019-05-30T17:32:17.846Z,2.20
2019-05-30T17:34:44.455Z,2.00
2019-05-30T17:37:10.941Z,2.20
2019-05-30T17:39:37.411Z,1.90
2019-05-30T17:42:03.916Z,1.83
2019-05-30T17:44:30.387Z,1.77
2019-05-30T17:46:56.877Z,1.70
2019-05-30T17:49:23.729Z,1.50
2019-05-30T17:51:50.359Z,1.63
2019-05-30T17:54:16.907Z,1.63
2019-05-30T17:56:43.402Z,1.50
2019-05-30T17:59:09.882Z,1.83
2019-05-30T18:01:36.347Z,1.93
2019-05-30T18:04:02.950Z,2.00
2019-05-30T18:06:29.416Z,1.60
2019-05-30T18:08:55.912Z,1.50
2019-05-30T18:11:22.826Z,2.00
2019-05-30T18:13:49.469Z,2.40
2019-05-30T18:16:15.947Z,3.77
2019-05-30T18:18:42.439Z,4.17
2019-05-30T18:21:08.915Z,3.27
2019-05-30T18:23:35.406Z,3.10
2019-05-30T18:26:01.891Z,4.10
2019-05-30T18:28:28.359Z,3.17
2019-05-30T18:30:54.846Z,3.03
2019-05-30T18:33:22.129Z,2.70
2019-05-30T18:35:48.764Z,2.40
2019-05-30T18:38:15.245Z,2.60
2019-05-30T18:40:41.753Z,3.30
2019-05-30T18:43:08.190Z,3.37
2019-05-30T18:45:35.839Z,3.17
2019-05-30T18:48:02.464Z,3.50
2019-05-30T18:50:29.364Z,3.27
2019-05-30T18:52:55.891Z,2.50
2019-05-30T18:55:22.393Z,2.73
2019-05-30T18:57:48.813Z,2.40
2019-05-30T19:00:17.395Z,2.97
2019-05-30T19:02:44.010Z,2.63
2019-05-30T19:05:10.777Z,2.93
2019-05-30T19:07:37.533Z,3.00
2019-05-30T19:10:04.136Z,2.80
2019-05-30T19:12:32.210Z,2.70
2019-05-30T19:14:58.484Z,3.27
2019-05-30T19:17:25.322Z,3.13
2019-05-30T19:19:52.340Z,2.77
2019-05-30T19:22:18.751Z,2.90
2019-05-30T19:24:46.572Z,3.10
2019-05-30T19:27:12.993Z,3.10
2019-05-30T19:29:39.446Z,4.43
2019-05-30T19:32:05.940Z,3.97
2019-05-30T19:34:32.792Z,3.83
2019-05-30T19:36:59.431Z,5.33
2019-05-30T19:39:27.205Z,5.00
2019-05-30T19:41:57.410Z,4.63
2019-05-30T19:44:22.113Z,4.70
2019-05-30T19:46:48.531Z,4.37
2019-05-30T19:49:15.207Z,3.80
2019-05-30T19:51:41.819Z,4.07
2019-05-30T19:54:08.021Z,3.60
2019-05-30T19:56:37.434Z,3.60
2019-05-30T19:59:02.260Z,3.97
2019-05-30T20:01:29.656Z,3.90
2019-05-30T20:03:57.040Z,4.60
2019-05-30T20:06:24.924Z,4.20
2019-05-30T20:08:55.811Z,4.33
2019-05-30T20:11:19.940Z,4.30
2019-05-30T20:13:45.994Z,4.20
2019-05-30T20:16:12.053Z,4.33
2019-05-30T20:18:38.124Z,4.30
2019-05-30T20:21:04.189Z,4.20
2019-05-30T20:23:30.360Z,4.20
2019-05-30T20:25:56.537Z,3.80
2019-05-30T20:28:22.592Z,4.10
2019-05-30T20:30:48.648Z,3.73
2019-05-30T20:33:14.730Z,4.00
2019-05-30T20:35:42.141Z,3.70
2019-05-30T20:38:08.742Z,3.80
2019-05-30T20:40:34.941Z,4.23
2019-05-30T20:43:01.192Z,5.13
2019-05-30T20:45:27.248Z,3.43
2019-05-30T20:47:53.312Z,3.80
2019-05-30T20:50:19.803Z,4.07
2019-05-30T20:52:45.920Z,4.20
2019-05-30T20:55:12.632Z,3.70
2019-05-30T20:57:38.697Z,4.30
2019-05-30T21:00:07.668Z,4.20
2019-05-30T21:02:34.645Z,4.73
2019-05-30T21:05:00.798Z,4.87
2019-05-30T21:07:27.148Z,4.80
2019-05-30T21:09:53.494Z,4.50
2019-05-30T21:12:36.358Z,4.60
2019-05-30T21:14:51.297Z,4.97
2019-05-30T21:17:18.653Z,5.00
2019-05-30T21:19:45.838Z,3.50
2019-05-30T21:22:12.283Z,4.50
2019-05-30T21:24:38.589Z,4.87
2019-05-30T21:27:04.824Z,4.80
2019-05-30T21:29:30.876Z,5.20
2019-05-30T21:31:56.940Z,5.50
2019-05-30T21:34:23.012Z,4.73
2019-05-30T21:36:49.060Z,5.00
2019-05-30T21:39:15.124Z,5.07
2019-05-30T21:41:42.241Z,5.00
2019-05-30T21:44:08.464Z,5.27
2019-05-30T21:46:34.517Z,5.30
2019-05-30T21:49:00.583Z,4.90
2019-05-30T21:51:26.652Z,5.10
2019-05-30T21:53:52.795Z,5.13
2019-05-30T21:56:18.852Z,5.33
2019-05-30T21:58:46.264Z,5.00
2019-05-30T22:01:19.295Z,5.10
2019-05-30T22:03:46.505Z,5.80
2019-05-30T22:06:12.819Z,4.90
2019-05-30T22:08:38.972Z,5.30
2019-05-30T22:11:05.149Z,5.83
2019-05-30T22:13:31.307Z,5.13
2019-05-30T22:15:57.385Z,5.20
2019-05-30T22:18:23.452Z,5.37
2019-05-30T22:20:49.953Z,6.00
2019-05-30T22:23:16.090Z,5.70
2019-05-30T22:25:42.182Z,6.23
2019-05-30T22:28:08.302Z,5.70
2019-05-30T22:30:34.377Z,6.20
2019-05-30T22:33:00.432Z,5.30
2019-05-30T22:35:26.488Z,5.47
2019-05-30T22:37:53.087Z,5.57
2019-05-30T22:40:19.315Z,6.00
2019-05-30T22:42:46.274Z,6.10
2019-05-30T22:45:12.555Z,5.87
2019-05-30T22:47:38.613Z,5.50
2019-05-30T22:50:05.204Z,5.15
2019-05-30T22:52:31.255Z,5.97
2019-05-30T22:54:57.408Z,6.50
2019-05-30T22:57:23.504Z,5.40
2019-05-30T22:59:49.559Z,5.70
2019-05-30T23:02:15.624Z,5.80
2019-05-30T23:04:41.700Z,5.75
2019-05-30T23:07:07.759Z,5.10
2019-05-30T23:09:33.832Z,5.53
2019-05-30T23:11:59.923Z,5.95
2019-05-30T23:14:26.086Z,6.45
2019-05-30T23:16:52.345Z,6.17
2019-05-30T23:19:18.425Z,6.03
2019-05-30T23:21:44.492Z,5.40
2019-05-30T23:24:10.563Z,5.87
2019-05-30T23:26:36.740Z,6.35
2019-05-30T23:29:02.912Z,5.07
2019-05-30T23:31:28.991Z,5.00
2019-05-30T23:33:56.375Z,6.00
2019-05-30T23:36:22.751Z,5.50
2019-05-30T23:38:48.917Z,6.87
2019-05-30T23:41:15.001Z,5.37
2019-05-30T23:43:55.454Z,5.83
2019-05-30T23:46:09.011Z,6.08
2019-05-30T23:48:35.088Z,5.72
2019-05-30T23:51:01.157Z,6.30
2019-05-30T23:53:27.215Z,6.90
2019-05-30T23:55:54.276Z,5.58
2019-05-30T23:58:20.564Z,6.30
